sensor_id;sensor_type;location;lat;lon;timestamp;pressure;altitude;pressure_sealevel;temperature;humidity
51928;BME280;37953;52.806;18.270;2023-05-10T00:00:40;100989.13;;;12.45;67.83
51928;BME280;37953;52.806;18.270;2023-05-10T00:03:10;100985.63;;;12.41;68.33
51928;BME280;37953;52.806;18.270;2023-05-10T00:05:36;100992.59;;;12.39;68.53
51928;BME280;37953;52.806;18.270;2023-05-10T00:08:02;100989.94;;;12.36;68.44
51928;BME280;37953;52.806;18.270;2023-05-10T00:10:28;100993.41;;;12.33;68.82
51928;BME280;37953;52.806;18.270;2023-05-10T00:12:54;100987.34;;;12.30;68.71
51928;BME280;37953;52.806;18.270;2023-05-10T00:15:20;100995.13;;;12.27;68.74
51928;BME280;37953;52.806;18.270;2023-05-10T00:17:47;100989.03;;;12.25;68.76
51928;BME280;37953;52.806;18.270;2023-05-10T00:20:12;100983.84;;;12.21;69.35
51928;BME280;37953;52.806;18.270;2023-05-10T00:22:39;100981.19;;;12.17;69.40
51928;BME280;37953;52.806;18.270;2023-05-10T00:25:11;100979.47;;;12.17;69.42
51928;BME280;37953;52.806;18.270;2023-05-10T00:27:40;100977.72;;;12.16;69.50
51928;BME280;37953;52.806;18.270;2023-05-10T00:30:06;100978.59;;;12.14;69.76
51928;BME280;37953;52.806;18.270;2023-05-10T00:32:32;100977.69;;;12.10;69.52
51928;BME280;37953;52.806;18.270;2023-05-10T00:35:07;100971.63;;;12.10;70.08
51928;BME280;37953;52.806;18.270;2023-05-10T00:37:33;100975.09;;;12.07;70.44
51928;BME280;37953;52.806;18.270;2023-05-10T00:39:59;100976.81;;;12.07;70.09
51928;BME280;37953;52.806;18.270;2023-05-10T00:42:25;100975.06;;;12.06;70.40
51928;BME280;37953;52.806;18.270;2023-05-10T00:44:51;100974.19;;;12.05;70.67
51928;BME280;37953;52.806;18.270;2023-05-10T00:47:20;100975.06;;;12.04;70.09
51928;BME280;37953;52.806;18.270;2023-05-10T00:49:47;100971.59;;;12.00;70.51
51928;BME280;37953;52.806;18.270;2023-05-10T00:52:13;100973.28;;;11.97;70.84
51928;BME280;37953;52.806;18.270;2023-05-10T00:54:42;100968.09;;;11.94;71.13
51928;BME280;37953;52.806;18.270;2023-05-10T00:57:08;100967.19;;;11.93;70.71
51928;BME280;37953;52.806;18.270;2023-05-10T00:59:34;100974.13;;;11.91;71.40
51928;BME280;37953;52.806;18.270;2023-05-10T01:02:07;100967.19;;;11.90;71.29
51928;BME280;37953;52.806;18.270;2023-05-10T01:04:33;100959.31;;;11.86;71.17
51928;BME280;37953;52.806;18.270;2023-05-10T01:06:59;100957.56;;;11.81;71.23
51928;BME280;37953;52.806;18.270;2023-05-10T01:09:25;100973.16;;;11.77;70.83
51928;BME280;37953;52.806;18.270;2023-05-10T01:11:52;100954.03;;;11.72;71.11
51928;BME280;37953;52.806;18.270;2023-05-10T01:14:21;100959.22;;;11.69;71.93
51928;BME280;37953;52.806;18.270;2023-05-10T01:16:51;100958.34;;;11.65;72.40
51928;BME280;37953;52.806;18.270;2023-05-10T01:19:38;100947.91;;;11.64;71.93
51928;BME280;37953;52.806;18.270;2023-05-10T01:30:46;100948.75;;;11.61;73.17
51928;BME280;37953;52.806;18.270;2023-05-10T01:33:32;100945.41;;;11.79;72.95
51928;BME280;37953;52.806;18.270;2023-05-10T01:36:06;100948.81;;;11.67;72.99
51928;BME280;37953;52.806;18.270;2023-05-10T01:38:57;100936.66;;;11.65;73.37
51928;BME280;37953;52.806;18.270;2023-05-10T01:41:30;100935.72;;;11.56;72.92
51928;BME280;37953;52.806;18.270;2023-05-10T01:44:31;100939.19;;;11.57;72.93
51928;BME280;37953;52.806;18.270;2023-05-10T01:47:37;100940.94;;;11.58;73.33
51928;BME280;37953;52.806;18.270;2023-05-10T01:50:15;100934.81;;;11.48;73.70
51928;BME280;37953;52.806;18.270;2023-05-10T01:52:44;100936.53;;;11.48;74.39
51928;BME280;37953;52.806;18.270;2023-05-10T01:55:15;100926.97;;;11.42;74.19
51928;BME280;37953;52.806;18.270;2023-05-10T01:57:44;100935.63;;;11.41;74.33
51928;BME280;37953;52.806;18.270;2023-05-10T02:00:17;100928.66;;;11.37;74.58
51928;BME280;37953;52.806;18.270;2023-05-10T02:02:46;100927.75;;;11.32;74.71
51928;BME280;37953;52.806;18.270;2023-05-10T02:05:16;100925.16;;;11.30;74.50
51928;BME280;37953;52.806;18.270;2023-05-10T02:07:46;100921.63;;;11.25;74.89
51928;BME280;37953;52.806;18.270;2023-05-10T02:12:44;100917.28;;;11.21;74.91
51928;BME280;37953;52.806;18.270;2023-05-10T02:15:22;100912.94;;;11.21;75.24
51928;BME280;37953;52.806;18.270;2023-05-10T02:17:49;100912.91;;;11.17;75.50
51928;BME280;37953;52.806;18.270;2023-05-10T02:20:16;100914.63;;;11.13;76.07
51928;BME280;37953;52.806;18.270;2023-05-10T02:22:42;100907.66;;;11.11;76.15
51928;BME280;37953;52.806;18.270;2023-05-10T02:25:10;100907.66;;;11.11;76.59
51928;BME280;37953;52.806;18.270;2023-05-10T02:27:37;100900.69;;;11.07;76.61
51928;BME280;37953;52.806;18.270;2023-05-10T02:30:05;100906.75;;;11.06;76.48
51928;BME280;37953;52.806;18.270;2023-05-10T02:32:31;100899.78;;;11.02;76.82
51928;BME280;37953;52.806;18.270;2023-05-10T02:34:59;100902.38;;;10.98;76.40
51928;BME280;37953;52.806;18.270;2023-05-10T02:37:27;100901.47;;;10.95;76.93
51928;BME280;37953;52.806;18.270;2023-05-10T02:39:55;100901.47;;;10.95;77.63
51928;BME280;37953;52.806;18.270;2023-05-10T02:42:31;100904.97;;;10.97;77.71
51928;BME280;37953;52.806;18.270;2023-05-10T02:45:05;100905.81;;;10.94;77.42
51928;BME280;37953;52.806;18.270;2023-05-10T02:47:33;100897.97;;;10.88;77.70
51928;BME280;37953;52.806;18.270;2023-05-10T02:49:59;100906.59;;;10.87;77.63
51928;BME280;37953;52.806;18.270;2023-05-10T02:52:39;100902.28;;;10.86;78.01
51928;BME280;37953;52.806;18.270;2023-05-10T02:55:07;100897.91;;;10.85;77.32
51928;BME280;37953;52.806;18.270;2023-05-10T02:57:34;100900.50;;;10.84;77.89
51928;BME280;37953;52.806;18.270;2023-05-10T03:00:07;100896.16;;;10.81;77.66
51928;BME280;37953;52.806;18.270;2023-05-10T03:02:34;100900.50;;;10.82;78.20
51928;BME280;37953;52.806;18.270;2023-05-10T03:05:00;100898.75;;;10.81;77.97
51928;BME280;37953;52.806;18.270;2023-05-10T03:07:26;100899.66;;;10.82;77.75
51928;BME280;37953;52.806;18.270;2023-05-10T03:09:52;100903.09;;;10.82;77.90
51928;BME280;37953;52.806;18.270;2023-05-10T03:21:31;100907.38;;;10.75;78.58
51928;BME280;37953;52.806;18.270;2023-05-10T03:24:07;100909.13;;;10.78;78.16
51928;BME280;37953;52.806;18.270;2023-05-10T03:26:35;100911.69;;;10.73;77.69
51928;BME280;37953;52.806;18.270;2023-05-10T03:29:03;100896.94;;;10.72;78.07
51928;BME280;37953;52.806;18.270;2023-05-10T03:31:30;100904.75;;;10.72;78.22
51928;BME280;37953;52.806;18.270;2023-05-10T03:33:55;100904.75;;;10.72;78.54
51928;BME280;37953;52.806;18.270;2023-05-10T03:36:22;100899.53;;;10.71;78.29
51928;BME280;37953;52.806;18.270;2023-05-10T03:38:47;100898.69;;;10.72;77.86
51928;BME280;37953;52.806;18.270;2023-05-10T03:41:13;100903.00;;;10.73;78.43
51928;BME280;37953;52.806;18.270;2023-05-10T03:43:39;100898.69;;;10.72;78.14
51928;BME280;37953;52.806;18.270;2023-05-10T03:46:06;100894.38;;;10.74;78.33
51928;BME280;37953;52.806;18.270;2023-05-10T03:48:32;100895.22;;;10.73;78.58
51928;BME280;37953;52.806;18.270;2023-05-10T03:50:58;100890.91;;;10.75;78.65
51928;BME280;37953;52.806;18.270;2023-05-10T03:53:24;100891.78;;;10.77;78.52
51928;BME280;37953;52.806;18.270;2023-05-10T03:55:51;100892.66;;;10.76;78.41
51928;BME280;37953;52.806;18.270;2023-05-10T03:58:16;100892.66;;;10.76;78.22
51928;BME280;37953;52.806;18.270;2023-05-10T04:00:46;100889.19;;;10.77;78.24
51928;BME280;37953;52.806;18.270;2023-05-10T04:03:12;100890.06;;;10.79;78.94
51928;BME280;37953;52.806;18.270;2023-05-10T04:05:41;100883.16;;;10.79;79.83
51928;BME280;37953;52.806;18.270;2023-05-10T04:08:06;100891.81;;;10.80;79.13
51928;BME280;37953;52.806;18.270;2023-05-10T04:10:32;100887.50;;;10.82;77.78
51928;BME280;37953;52.806;18.270;2023-05-10T04:12:58;100891.00;;;10.84;78.34
51928;BME280;37953;52.806;18.270;2023-05-10T04:15:24;100879.72;;;10.85;77.97
51928;BME280;37953;52.806;18.270;2023-05-10T04:17:50;100885.84;;;10.89;78.60
51928;BME280;37953;52.806;18.270;2023-05-10T04:20:17;100882.38;;;10.91;78.87
51928;BME280;37953;52.806;18.270;2023-05-10T04:22:43;100883.25;;;10.93;78.33
51928;BME280;37953;52.806;18.270;2023-05-10T04:25:09;100880.69;;;10.95;77.61
51928;BME280;37953;52.806;18.270;2023-05-10T04:27:35;100881.59;;;10.98;77.99
51928;BME280;37953;52.806;18.270;2023-05-10T04:30:01;100888.53;;;11.01;77.42
51928;BME280;37953;52.806;18.270;2023-05-10T04:32:27;100887.69;;;11.04;77.69
51928;BME280;37953;52.806;18.270;2023-05-10T04:35:00;100890.28;;;11.07;76.92
51928;BME280;37953;52.806;18.270;2023-05-10T04:37:31;100882.53;;;11.10;76.89
51928;BME280;37953;52.806;18.270;2023-05-10T04:39:57;100879.94;;;11.13;77.30
51928;BME280;37953;52.806;18.270;2023-05-10T04:42:25;100876.50;;;11.14;77.49
51928;BME280;37953;52.806;18.270;2023-05-10T04:44:51;100877.38;;;11.16;77.24
51928;BME280;37953;52.806;18.270;2023-05-10T04:47:17;100886.94;;;11.20;77.06
51928;BME280;37953;52.806;18.270;2023-05-10T04:49:43;100885.22;;;11.24;77.82
51928;BME280;37953;52.806;18.270;2023-05-10T04:52:12;100882.66;;;11.27;77.96
51928;BME280;37953;52.806;18.270;2023-05-10T04:54:40;100887.84;;;11.30;77.28
51928;BME280;37953;52.806;18.270;2023-05-10T04:57:08;100881.81;;;11.34;77.85
51928;BME280;37953;52.806;18.270;2023-05-10T04:59:38;100880.97;;;11.35;76.66
51928;BME280;37953;52.806;18.270;2023-05-10T05:02:05;100878.38;;;11.39;76.91
51928;BME280;37953;52.806;18.270;2023-05-10T05:04:37;100887.94;;;11.44;76.48
51928;BME280;37953;52.806;18.270;2023-05-10T05:07:07;100879.28;;;11.46;76.20
51928;BME280;37953;52.806;18.270;2023-05-10T05:09:39;100882.78;;;11.50;75.97
51928;BME280;37953;52.806;18.270;2023-05-10T05:12:19;100877.59;;;11.54;76.27
51928;BME280;37953;52.806;18.270;2023-05-10T05:14:53;100877.59;;;11.57;75.69
51928;BME280;37953;52.806;18.270;2023-05-10T05:17:22;100890.66;;;11.62;75.50
51928;BME280;37953;52.806;18.270;2023-05-10T05:19:48;100889.81;;;11.65;76.22
51928;BME280;37953;52.806;18.270;2023-05-10T05:22:17;100884.63;;;11.69;76.50
51928;BME280;37953;52.806;18.270;2023-05-10T05:24:45;100887.22;;;11.72;74.93
51928;BME280;37953;52.806;18.270;2023-05-10T05:27:11;100879.47;;;11.77;74.47
51928;BME280;37953;52.806;18.270;2023-05-10T05:29:37;100881.22;;;11.81;75.24
51928;BME280;37953;52.806;18.270;2023-05-10T05:32:03;100879.47;;;11.85;74.46
51928;BME280;37953;52.806;18.270;2023-05-10T05:34:30;100880.41;;;11.90;74.31
51928;BME280;37953;52.806;18.270;2023-05-10T05:36:55;100878.69;;;11.95;75.22
51928;BME280;37953;52.806;18.270;2023-05-10T05:39:22;100876.06;;;11.98;74.79
51928;BME280;37953;52.806;18.270;2023-05-10T05:41:51;100882.16;;;12.01;74.94
51928;BME280;37953;52.806;18.270;2023-05-10T05:44:23;100879.56;;;12.06;74.89
51928;BME280;37953;52.806;18.270;2023-05-10T05:46:57;100879.63;;;12.11;76.19
51928;BME280;37953;52.806;18.270;2023-05-10T05:49:23;100885.69;;;12.14;75.14
51928;BME280;37953;52.806;18.270;2023-05-10T05:51:49;100871.81;;;12.18;73.04
51928;BME280;37953;52.806;18.270;2023-05-10T05:54:18;100883.13;;;12.24;72.48
51928;BME280;37953;52.806;18.270;2023-05-10T05:56:47;100878.78;;;12.29;73.44
51928;BME280;37953;52.806;18.270;2023-05-10T05:59:19;100877.94;;;12.33;72.01
51928;BME280;37953;52.806;18.270;2023-05-10T06:01:49;100875.31;;;12.36;72.86
51928;BME280;37953;52.806;18.270;2023-05-10T06:04:28;100875.34;;;12.40;73.04
51928;BME280;37953;52.806;18.270;2023-05-10T06:06:54;100874.50;;;12.45;71.27
51928;BME280;37953;52.806;18.270;2023-05-10T06:09:24;100876.22;;;12.50;70.20
51928;BME280;37953;52.806;18.270;2023-05-10T06:11:51;100873.59;;;12.55;69.86
51928;BME280;37953;52.806;18.270;2023-05-10T06:14:25;100872.75;;;12.57;71.15
51928;BME280;37953;52.806;18.270;2023-05-10T06:16:56;100880.56;;;12.63;71.95
51928;BME280;37953;52.806;18.270;2023-05-10T06:19:25;100878.84;;;12.67;72.71
51928;BME280;37953;52.806;18.270;2023-05-10T06:21:52;100880.56;;;12.71;71.74
51928;BME280;37953;52.806;18.270;2023-05-10T06:24:18;100880.56;;;12.76;71.35
51928;BME280;37953;52.806;18.270;2023-05-10T06:26:44;100878.84;;;12.81;70.86
51928;BME280;37953;52.806;18.270;2023-05-10T06:29:10;100882.31;;;12.84;71.05
51928;BME280;37953;52.806;18.270;2023-05-10T06:31:36;100875.38;;;12.90;71.10
51928;BME280;37953;52.806;18.270;2023-05-10T06:34:02;100885.78;;;12.94;70.01
51928;BME280;37953;52.806;18.270;2023-05-10T06:36:29;100877.09;;;12.97;70.44
51928;BME280;37953;52.806;18.270;2023-05-10T06:38:54;100884.91;;;13.01;70.21
51928;BME280;37953;52.806;18.270;2023-05-10T06:41:23;100880.56;;;13.03;69.21
51928;BME280;37953;52.806;18.270;2023-05-10T06:43:50;100872.75;;;13.08;69.05
51928;BME280;37953;52.806;18.270;2023-05-10T06:46:22;100877.09;;;13.12;69.87
51928;BME280;37953;52.806;18.270;2023-05-10T06:48:53;100879.72;;;13.17;69.73
51928;BME280;37953;52.806;18.270;2023-05-10T06:51:27;100888.38;;;13.23;69.65
51928;BME280;37953;52.806;18.270;2023-05-10T06:53:54;100881.44;;;13.27;68.12
51928;BME280;37953;52.806;18.270;2023-05-10T06:56:29;100878.84;;;13.32;68.21
51928;BME280;37953;52.806;18.270;2023-05-10T06:59:00;100882.28;;;13.35;68.86
51928;BME280;37953;52.806;18.270;2023-05-10T07:01:35;100870.97;;;13.41;68.91
51928;BME280;37953;52.806;18.270;2023-05-10T07:04:06;100867.50;;;13.45;68.26
51928;BME280;37953;52.806;18.270;2023-05-10T07:06:40;100875.31;;;13.50;68.82
51928;BME280;37953;52.806;18.270;2023-05-10T07:09:14;100878.78;;;13.53;69.34
51928;BME280;37953;52.806;18.270;2023-05-10T07:11:41;100883.13;;;13.57;69.59
51928;BME280;37953;52.806;18.270;2023-05-10T07:14:07;100876.13;;;13.64;69.41
51928;BME280;37953;52.806;18.270;2023-05-10T07:16:34;100874.41;;;13.68;69.33
51928;BME280;37953;52.806;18.270;2023-05-10T07:19:00;100870.00;;;13.71;69.17
51928;BME280;37953;52.806;18.270;2023-05-10T07:21:29;100869.13;;;13.77;69.37
51928;BME280;37953;52.806;18.270;2023-05-10T07:24:01;100866.50;;;13.81;70.02
51928;BME280;37953;52.806;18.270;2023-05-10T07:26:41;100865.59;;;13.85;70.29
51928;BME280;37953;52.806;18.270;2023-05-10T07:29:10;100875.16;;;13.91;70.85
51928;BME280;37953;52.806;18.270;2023-05-10T07:31:36;100874.25;;;13.97;70.59
51928;BME280;37953;52.806;18.270;2023-05-10T07:34:13;100881.22;;;13.99;69.42
51928;BME280;37953;52.806;18.270;2023-05-10T07:36:43;100868.13;;;14.02;68.32
51928;BME280;37953;52.806;18.270;2023-05-10T07:39:17;100872.47;;;14.08;68.89
51928;BME280;37953;52.806;18.270;2023-05-10T07:41:50;100869.84;;;14.11;68.07
51928;BME280;37953;52.806;18.270;2023-05-10T07:44:18;100862.81;;;14.19;68.41
51928;BME280;37953;52.806;18.270;2023-05-10T07:46:46;100869.81;;;14.20;67.65
51928;BME280;37953;52.806;18.270;2023-05-10T07:49:18;100869.78;;;14.23;67.03
51928;BME280;37953;52.806;18.270;2023-05-10T07:51:50;100872.38;;;14.27;67.18
51928;BME280;37953;52.806;18.270;2023-05-10T07:54:15;100873.22;;;14.30;67.81
51928;BME280;37953;52.806;18.270;2023-05-10T07:56:42;100867.09;;;14.34;68.47
51928;BME280;37953;52.806;18.270;2023-05-10T07:59:16;100869.66;;;14.39;68.86
51928;BME280;37953;52.806;18.270;2023-05-10T08:01:43;100868.78;;;14.44;68.07
51928;BME280;37953;52.806;18.270;2023-05-10T08:04:14;100860.88;;;14.49;66.74
51928;BME280;37953;52.806;18.270;2023-05-10T08:06:48;100862.59;;;14.53;66.74
51928;BME280;37953;52.806;18.270;2023-05-10T08:09:20;100866.09;;;14.58;67.19
51928;BME280;37953;52.806;18.270;2023-05-10T08:11:53;100864.31;;;14.63;66.66
51928;BME280;37953;52.806;18.270;2023-05-10T08:14:24;100852.94;;;14.68;65.99
51928;BME280;37953;52.806;18.270;2023-05-10T08:16:50;100853.75;;;14.73;66.22
51928;BME280;37953;52.806;18.270;2023-05-10T08:19:16;100865.06;;;14.76;65.79
51928;BME280;37953;52.806;18.270;2023-05-10T08:21:48;100858.94;;;14.79;64.04
51928;BME280;37953;52.806;18.270;2023-05-10T08:24:14;100858.03;;;14.84;64.01
51928;BME280;37953;52.806;18.270;2023-05-10T08:26:40;100863.22;;;14.91;65.32
51928;BME280;37953;52.806;18.270;2023-05-10T08:29:06;100859.66;;;14.98;65.66
51928;BME280;37953;52.806;18.270;2023-05-10T08:31:32;100857.88;;;15.01;64.03
51928;BME280;37953;52.806;18.270;2023-05-10T08:34:01;100854.38;;;15.05;63.18
51928;BME280;37953;52.806;18.270;2023-05-10T08:36:27;100847.31;;;15.11;64.12
51928;BME280;37953;52.806;18.270;2023-05-10T08:38:57;100844.66;;;15.17;66.06
51928;BME280;37953;52.806;18.270;2023-05-10T08:41:33;100837.59;;;15.25;66.16
51928;BME280;37953;52.806;18.270;2023-05-10T08:44:04;100842.75;;;15.31;65.11
51928;BME280;37953;52.806;18.270;2023-05-10T08:46:33;100850.56;;;15.34;65.39
51928;BME280;37953;52.806;18.270;2023-05-10T08:49:09;100861.00;;;15.39;64.31
51928;BME280;37953;52.806;18.270;2023-05-10T08:51:51;100849.63;;;15.41;62.71
51928;BME280;37953;52.806;18.270;2023-05-10T08:54:21;100849.56;;;15.46;61.24
51928;BME280;37953;52.806;18.270;2023-05-10T08:56:50;100848.66;;;15.50;61.36
51928;BME280;37953;52.806;18.270;2023-05-10T08:59:19;100843.38;;;15.55;60.52
51928;BME280;37953;52.806;18.270;2023-05-10T09:01:46;100846.84;;;15.57;61.25
51928;BME280;37953;52.806;18.270;2023-05-10T09:04:21;100844.16;;;15.61;63.21
51928;BME280;37953;52.806;18.270;2023-05-10T09:06:50;100852.81;;;15.68;61.39
51928;BME280;37953;52.806;18.270;2023-05-10T09:09:17;100841.44;;;15.71;60.58
51928;BME280;37953;52.806;18.270;2023-05-10T09:11:44;100841.41;;;15.75;60.47
51928;BME280;37953;52.806;18.270;2023-05-10T09:14:11;100836.97;;;15.79;61.31
51928;BME280;37953;52.806;18.270;2023-05-10T09:16:38;100840.44;;;15.84;61.55
51928;BME280;37953;52.806;18.270;2023-05-10T09:19:10;100842.13;;;15.88;61.13
51928;BME280;37953;52.806;18.270;2023-05-10T09:21:51;100847.28;;;15.93;60.99
51928;BME280;37953;52.806;18.270;2023-05-10T09:24:32;100840.22;;;15.98;62.54
51928;BME280;37953;52.806;18.270;2023-05-10T09:27:01;100841.91;;;16.02;61.33
51928;BME280;37953;52.806;18.270;2023-05-10T09:29:47;100834.88;;;16.07;61.17
51928;BME280;37953;52.806;18.270;2023-05-10T09:32:19;100846.16;;;16.11;60.16
51928;BME280;37953;52.806;18.270;2023-05-10T09:34:52;100845.22;;;16.16;58.72
51928;BME280;37953;52.806;18.270;2023-05-10T09:37:29;100849.53;;;16.20;57.31
51928;BME280;37953;52.806;18.270;2023-05-10T09:40:08;100848.59;;;16.24;57.11
51928;BME280;37953;52.806;18.270;2023-05-10T09:42:37;100845.03;;;16.28;56.69
51928;BME280;37953;52.806;18.270;2023-05-10T09:45:08;100847.59;;;16.33;57.81
51928;BME280;37953;52.806;18.270;2023-05-10T09:47:35;100844.03;;;16.37;57.78
51928;BME280;37953;52.806;18.270;2023-05-10T09:50:04;100842.19;;;16.42;57.41
51928;BME280;37953;52.806;18.270;2023-05-10T09:52:52;100833.41;;;16.46;58.70
51928;BME280;37953;52.806;18.270;2023-05-10T09:55:21;100837.69;;;16.52;58.18
51928;BME280;37953;52.806;18.270;2023-05-10T09:57:49;100844.63;;;16.55;57.57
51928;BME280;37953;52.806;18.270;2023-05-10T10:00:20;100837.59;;;16.58;56.26
51928;BME280;37953;52.806;18.270;2023-05-10T10:02:59;100829.66;;;16.63;56.82
51928;BME280;37953;52.806;18.270;2023-05-10T10:05:33;100824.38;;;16.66;55.82
51928;BME280;37953;52.806;18.270;2023-05-10T10:08:00;100830.41;;;16.69;54.79
51928;BME280;37953;52.806;18.270;2023-05-10T10:10:27;100826.84;;;16.74;55.75
51928;BME280;37953;52.806;18.270;2023-05-10T10:12:54;100821.56;;;16.77;54.19
51928;BME280;37953;52.806;18.270;2023-05-10T10:15:21;100820.63;;;16.79;54.40
51928;BME280;37953;52.806;18.270;2023-05-10T10:17:48;100824.06;;;16.84;55.82
51928;BME280;37953;52.806;18.270;2023-05-10T10:20:15;100822.25;;;16.88;55.36
51928;BME280;37953;52.806;18.270;2023-05-10T10:22:47;100809.97;;;16.92;55.01
51928;BME280;37953;52.806;18.270;2023-05-10T10:25:19;100810.72;;;16.98;54.14
51928;BME280;37953;52.806;18.270;2023-05-10T10:30:27;100809.75;;;17.02;52.97
51928;BME280;37953;52.806;18.270;2023-05-10T10:35:58;100821.00;;;17.11;53.05
51928;BME280;37953;52.806;18.270;2023-05-10T10:41:58;100811.22;;;17.19;51.70
51928;BME280;37953;52.806;18.270;2023-05-10T10:44:40;100812.03;;;17.21;51.50
51928;BME280;37953;52.806;18.270;2023-05-10T10:50:06;100796.16;;;17.27;51.00
51928;BME280;37953;52.806;18.270;2023-05-10T10:52:42;100804.84;;;17.30;50.30
51928;BME280;37953;52.806;18.270;2023-05-10T10:55:17;100800.41;;;17.33;48.97
51928;BME280;37953;52.806;18.270;2023-05-10T10:57:58;100796.88;;;17.35;48.93
51928;BME280;37953;52.806;18.270;2023-05-10T11:00:35;100802.03;;;17.40;49.62
51928;BME280;37953;52.806;18.270;2023-05-10T11:03:14;100786.19;;;17.44;50.38
51928;BME280;37953;52.806;18.270;2023-05-10T11:05:48;100790.50;;;17.48;50.24
51928;BME280;37953;52.806;18.270;2023-05-10T11:08:41;100793.84;;;17.55;51.10
51928;BME280;37953;52.806;18.270;2023-05-10T11:11:17;100795.53;;;17.58;50.92
51928;BME280;37953;52.806;18.270;2023-05-10T11:13:54;100789.31;;;17.62;49.82
51928;BME280;37953;52.806;18.270;2023-05-10T11:16:46;100792.72;;;17.67;49.15
51928;BME280;37953;52.806;18.270;2023-05-10T11:19:13;100790.03;;;17.70;48.32
51928;BME280;37953;52.806;18.270;2023-05-10T11:21:49;100790.81;;;17.74;48.01
51928;BME280;37953;52.806;18.270;2023-05-10T11:24:26;100790.72;;;17.78;48.29
51928;BME280;37953;52.806;18.270;2023-05-10T11:26:53;100789.78;;;17.81;49.35
51928;BME280;37953;52.806;18.270;2023-05-10T11:29:22;100784.47;;;17.85;50.13
51928;BME280;37953;52.806;18.270;2023-05-10T11:31:49;100778.25;;;17.89;49.10
51928;BME280;37953;52.806;18.270;2023-05-10T11:34:29;100789.47;;;17.96;48.07
51928;BME280;37953;52.806;18.270;2023-05-10T11:36:56;100784.09;;;18.02;47.83
51928;BME280;37953;52.806;18.270;2023-05-10T11:39:30;100775.34;;;18.02;46.98
51928;BME280;37953;52.806;18.270;2023-05-10T11:41:57;100777.06;;;18.03;47.28
51928;BME280;37953;52.806;18.270;2023-05-10T11:44:24;100777.81;;;18.08;47.97
51928;BME280;37953;52.806;18.270;2023-05-10T11:47:06;100773.25;;;18.16;48.56
51928;BME280;37953;52.806;18.270;2023-05-10T11:49:33;100778.44;;;18.19;47.89
51928;BME280;37953;52.806;18.270;2023-05-10T11:52:11;100778.34;;;18.22;47.27
51928;BME280;37953;52.806;18.270;2023-05-10T11:54:58;100777.34;;;18.28;47.55
51928;BME280;37953;52.806;18.270;2023-05-10T11:57:35;100769.38;;;18.31;48.07
51928;BME280;37953;52.806;18.270;2023-05-10T12:00:06;100762.25;;;18.35;48.59
51928;BME280;37953;52.806;18.270;2023-05-10T12:02:43;100752.56;;;18.37;49.11
51928;BME280;37953;52.806;18.270;2023-05-10T12:05:16;100762.09;;;18.42;48.09
51928;BME280;37953;52.806;18.270;2023-05-10T12:07:49;100757.56;;;18.47;47.91
51928;BME280;37953;52.806;18.270;2023-05-10T12:10:34;100753.09;;;18.51;47.50
51928;BME280;37953;52.806;18.270;2023-05-10T12:13:13;100768.78;;;18.54;47.17
51928;BME280;37953;52.806;18.270;2023-05-10T12:15:40;100762.59;;;18.57;48.33
51928;BME280;37953;52.806;18.270;2023-05-10T12:18:21;100765.13;;;18.61;48.54
51928;BME280;37953;52.806;18.270;2023-05-10T12:20:53;100753.56;;;18.67;48.64
51928;BME280;37953;52.806;18.270;2023-05-10T12:23:33;100761.28;;;18.73;48.31
51928;BME280;37953;52.806;18.270;2023-05-10T12:26:05;100755.09;;;18.76;48.81
51928;BME280;37953;52.806;18.270;2023-05-10T12:28:33;100763.75;;;18.81;48.84
51928;BME280;37953;52.806;18.270;2023-05-10T12:31:08;100759.25;;;18.86;47.98
51928;BME280;37953;52.806;18.270;2023-05-10T12:33:50;100760.84;;;18.91;47.22
51928;BME280;37953;52.806;18.270;2023-05-10T12:36:24;100747.53;;;18.96;47.92
51928;BME280;37953;52.806;18.270;2023-05-10T12:39:04;100757.06;;;19.02;47.97
51928;BME280;37953;52.806;18.270;2023-05-10T12:41:36;100762.19;;;19.06;47.57
51928;BME280;37953;52.806;18.270;2023-05-10T12:44:08;100756.78;;;19.11;47.60
51928;BME280;37953;52.806;18.270;2023-05-10T12:46:40;100748.78;;;19.16;48.12
51928;BME280;37953;52.806;18.270;2023-05-10T12:49:15;100749.50;;;19.21;48.13
51928;BME280;37953;52.806;18.270;2023-05-10T12:51:47;100746.69;;;19.27;48.52
51928;BME280;37953;52.806;18.270;2023-05-10T12:54:23;100746.56;;;19.31;48.68
51928;BME280;37953;52.806;18.270;2023-05-10T12:56:48;100732.38;;;19.36;48.25
51928;BME280;37953;52.806;18.270;2023-05-10T12:59:14;100731.38;;;19.40;48.35
51928;BME280;37953;52.806;18.270;2023-05-10T13:01:46;100729.44;;;19.46;48.69
51928;BME280;37953;52.806;18.270;2023-05-10T13:04:17;100736.34;;;19.50;48.26
51928;BME280;37953;52.806;18.270;2023-05-10T13:06:43;100734.41;;;19.56;47.54
51928;BME280;37953;52.806;18.270;2023-05-10T13:09:14;100746.56;;;19.61;47.71
51928;BME280;37953;52.806;18.270;2023-05-10T13:11:48;100734.16;;;19.65;45.54
51928;BME280;37953;52.806;18.270;2023-05-10T13:14:20;100739.28;;;19.71;46.58
51928;BME280;37953;52.806;18.270;2023-05-10T13:16:47;100732.94;;;19.77;46.22
51928;BME280;37953;52.806;18.270;2023-05-10T13:19:25;100724.94;;;19.80;44.89
51928;BME280;37953;52.806;18.270;2023-05-10T13:21:57;100733.47;;;19.88;47.27
51928;BME280;37953;52.806;18.270;2023-05-10T13:24:26;100725.28;;;19.96;46.10
51928;BME280;37953;52.806;18.270;2023-05-10T13:26:58;100718.94;;;20.03;47.14
51928;BME280;37953;52.806;18.270;2023-05-10T13:29:30;100724.09;;;20.06;47.19